createdAt,value
2018-06-18T00:00:43.869Z,83.25
2018-06-18T00:01:43.839Z,83.15
2018-06-18T00:03:36.714Z,83.44
2018-06-18T00:04:36.664Z,83.53
2018-06-18T00:06:29.489Z,84.20
2018-06-18T00:07:29.449Z,83.34
2018-06-18T00:09:22.420Z,83.15
2018-06-18T00:10:22.374Z,84.11
2018-06-18T00:12:15.199Z,84.01
2018-06-18T00:13:15.154Z,83.92
2018-06-18T00:15:08.187Z,84.01
2018-06-18T00:16:08.131Z,84.11
2018-06-18T00:18:01.016Z,84.49
2018-06-18T00:19:00.912Z,84.01
2018-06-18T00:20:53.880Z,84.78
2018-06-18T00:21:53.850Z,84.01
2018-06-18T00:23:46.807Z,84.49
2018-06-18T00:24:46.781Z,84.88
2018-06-18T00:26:39.632Z,84.68
2018-06-18T00:27:39.602Z,85.16
2018-06-18T00:29:32.565Z,85.16
2018-06-18T00:30:32.523Z,84.97
2018-06-18T00:32:25.481Z,84.49
2018-06-18T00:33:25.452Z,84.88
2018-06-18T00:35:18.568Z,84.58
2018-06-18T00:36:18.518Z,84.39
2018-06-18T00:38:11.478Z,84.30
2018-06-18T00:39:11.461Z,84.30
2018-06-18T00:41:04.428Z,84.72
2018-06-18T00:42:04.380Z,84.78
2018-06-18T00:43:57.610Z,84.68
2018-06-18T00:44:57.443Z,84.88
2018-06-18T00:46:50.411Z,85.25
2018-06-18T00:47:50.371Z,84.91
2018-06-18T00:49:43.356Z,84.91
2018-06-18T00:50:43.301Z,84.68
2018-06-18T00:52:36.417Z,85.11
2018-06-18T00:53:36.382Z,85.16
2018-06-18T00:55:29.358Z,85.30
2018-06-18T00:56:29.308Z,85.01
2018-06-18T00:58:22.304Z,85.11
2018-06-18T00:59:22.280Z,85.21
2018-06-18T01:01:15.321Z,84.91
2018-06-18T01:02:15.271Z,85.16
2018-06-18T01:04:08.225Z,85.25
2018-06-18T01:05:08.192Z,85.25
2018-06-18T01:07:01.178Z,85.35
2018-06-18T01:08:01.127Z,85.06
2018-06-18T01:09:53.957Z,85.25
2018-06-18T01:10:53.892Z,85.25
2018-06-18T01:12:46.873Z,85.35
2018-06-18T01:13:46.850Z,85.54
2018-06-18T01:15:39.845Z,85.64
2018-06-18T01:16:39.775Z,85.64
2018-06-18T01:18:32.904Z,85.06
2018-06-18T01:19:32.852Z,85.54
2018-06-18T01:21:25.809Z,85.25
2018-06-18T01:22:25.781Z,85.45
2018-06-18T01:24:18.759Z,85.54
2018-06-18T01:25:18.701Z,85.35
2018-06-18T01:27:11.863Z,85.68
2018-06-18T01:28:11.760Z,85.64
2018-06-18T01:30:04.702Z,85.45
2018-06-18T01:31:04.668Z,86.02
2018-06-18T01:32:57.507Z,85.93
2018-06-18T01:33:57.462Z,85.83
2018-06-18T01:35:50.663Z,85.64
2018-06-18T01:36:50.516Z,85.83
2018-06-18T01:38:43.502Z,85.83
2018-06-18T01:39:43.459Z,85.83
2018-06-18T01:41:36.348Z,86.41
2018-06-18T01:42:36.322Z,86.41
2018-06-18T01:44:29.569Z,85.54
2018-06-18T01:45:29.381Z,85.64
2018-06-18T01:47:22.338Z,86.21
2018-06-18T01:48:22.306Z,86.21
2018-06-18T01:50:15.288Z,86.69
2018-06-18T01:51:15.247Z,86.41
2018-06-18T01:53:08.373Z,86.21
2018-06-18T01:54:08.312Z,86.21
2018-06-18T01:56:01.280Z,86.41
2018-06-18T01:57:01.253Z,86.12
2018-06-18T01:58:54.220Z,86.60
2018-06-18T01:59:54.179Z,86.41
2018-06-18T02:01:47.094Z,86.21
2018-06-18T02:02:47.068Z,86.79
2018-06-18T02:04:40.064Z,86.50
2018-06-18T02:05:40.019Z,86.12
2018-06-18T02:07:32.981Z,86.12
2018-06-18T02:08:32.953Z,86.12
2018-06-18T02:10:26.199Z,86.88
2018-06-18T02:11:26.030Z,86.79
2018-06-18T02:13:18.838Z,86.12
2018-06-18T02:14:18.813Z,86.02
2018-06-18T02:16:11.825Z,86.31
2018-06-18T02:17:11.738Z,86.50
2018-06-18T02:19:04.849Z,86.41
2018-06-18T02:20:04.814Z,86.41
2018-06-18T02:21:57.787Z,86.41
2018-06-18T02:22:57.735Z,86.31
2018-06-18T02:24:50.714Z,86.41
2018-06-18T02:25:50.669Z,86.98
2018-06-18T02:27:43.860Z,86.69
2018-06-18T02:28:43.743Z,86.21
2018-06-18T02:30:36.710Z,86.50
2018-06-18T02:31:36.666Z,86.60
2018-06-18T02:33:29.629Z,86.79
2018-06-18T02:34:29.590Z,86.31
2018-06-18T02:36:22.535Z,86.60
2018-06-18T02:37:22.418Z,86.88
2018-06-18T02:39:15.374Z,86.69
2018-06-18T02:40:15.360Z,86.50
2018-06-18T02:42:08.315Z,86.60
2018-06-18T02:43:08.274Z,87.08
2018-06-18T02:45:01.233Z,86.69
2018-06-18T02:46:01.204Z,86.98
2018-06-18T02:47:54.165Z,87.46
2018-06-18T02:48:54.005Z,86.88
2018-06-18T02:50:47.006Z,87.55
2018-06-18T02:51:46.980Z,87.08
2018-06-18T02:53:39.807Z,87.27
2018-06-18T02:54:39.771Z,87.74
2018-06-18T02:56:32.733Z,87.94
2018-06-18T02:57:32.691Z,88.03
2018-06-18T02:59:25.703Z,87.27
2018-06-18T03:00:25.632Z,87.94
2018-06-18T03:02:18.463Z,88.03
2018-06-18T03:03:18.424Z,88.03
2018-06-18T03:05:11.364Z,87.84
2018-06-18T03:06:11.327Z,87.17
2018-06-18T03:08:04.499Z,87.08
2018-06-18T03:09:04.443Z,87.08
2018-06-18T03:10:57.406Z,87.46
2018-06-18T03:11:57.376Z,87.37
2018-06-18T03:13:50.366Z,87.74
2018-06-18T03:14:50.306Z,87.55
2018-06-18T03:16:43.272Z,87.17
2018-06-18T03:17:43.228Z,87.74
2018-06-18T03:19:36.233Z,87.17
2018-06-18T03:20:36.171Z,87.74
2018-06-18T03:22:28.995Z,87.74
2018-06-18T03:23:29.045Z,87.46
2018-06-18T03:25:22.177Z,87.55
2018-06-18T03:26:22.061Z,87.84
2018-06-18T03:28:15.033Z,88.23
2018-06-18T03:29:14.997Z,88.32
2018-06-18T03:31:08.024Z,88.13
2018-06-18T03:32:07.963Z,88.32
2018-06-18T03:34:01.070Z,88.23
2018-06-18T03:35:01.033Z,88.23
2018-06-18T03:36:53.868Z,87.84
2018-06-18T03:37:53.819Z,88.03
2018-06-18T03:39:46.801Z,88.32
2018-06-18T03:40:46.756Z,88.51
2018-06-18T03:42:39.966Z,87.84
2018-06-18T03:43:39.819Z,88.51
2018-06-18T03:45:32.776Z,87.94
2018-06-18T03:46:32.805Z,88.13
2018-06-18T03:48:25.711Z,87.74
2018-06-18T03:49:25.671Z,87.65
2018-06-18T03:51:18.807Z,88.32
2018-06-18T03:52:18.726Z,87.84
2018-06-18T03:54:11.683Z,87.84
2018-06-18T03:55:11.680Z,88.13
2018-06-18T03:57:04.619Z,88.13
2018-06-18T03:58:04.576Z,88.23
2018-06-18T03:59:57.682Z,88.13
2018-06-18T04:00:57.627Z,88.42
2018-06-18T04:02:50.446Z,88.23
2018-06-18T04:03:50.428Z,88.32
2018-06-18T04:05:43.409Z,88.13
2018-06-18T04:06:43.387Z,88.51
2018-06-18T04:08:36.433Z,87.74
2018-06-18T04:09:36.397Z,87.55
2018-06-18T04:11:29.368Z,87.46
2018-06-18T04:12:29.320Z,87.98
2018-06-18T04:14:22.129Z,87.98
2018-06-18T04:15:22.108Z,87.46
2018-06-18T04:17:14.924Z,87.46
2018-06-18T04:18:14.875Z,87.94
2018-06-18T04:20:07.970Z,87.88
2018-06-18T04:21:07.936Z,87.98
2018-06-18T04:23:00.933Z,87.41
2018-06-18T04:24:00.870Z,87.50
2018-06-18T04:25:53.851Z,87.31
2018-06-18T04:26:53.819Z,87.50
2018-06-18T04:28:46.870Z,86.93
2018-06-18T04:29:46.836Z,86.64
2018-06-18T04:31:39.788Z,87.02
2018-06-18T04:32:39.764Z,86.74
2018-06-18T04:34:32.733Z,86.54
2018-06-18T04:35:32.688Z,86.83
2018-06-18T04:37:25.534Z,86.25
2018-06-18T04:38:25.464Z,86.16
2018-06-18T04:40:18.439Z,86.25
2018-06-18T04:41:18.393Z,86.25
2018-06-18T04:43:11.225Z,85.78
2018-06-18T04:44:11.173Z,85.68
2018-06-18T04:46:04.143Z,85.92
2018-06-18T04:47:04.125Z,86.68
2018-06-18T04:48:57.211Z,86.30
2018-06-18T04:49:57.160Z,85.63
2018-06-18T04:51:50.145Z,85.44
2018-06-18T04:52:50.107Z,85.25
2018-06-18T04:54:43.085Z,85.72
2018-06-18T04:55:43.048Z,85.44
2018-06-18T04:57:35.877Z,85.72
2018-06-18T04:58:35.838Z,85.72
2018-06-18T05:00:28.827Z,85.05
2018-06-18T05:01:28.766Z,85.34
2018-06-18T05:03:21.624Z,85.63
2018-06-18T05:04:21.575Z,85.05
2018-06-18T05:06:14.531Z,85.25
2018-06-18T05:07:14.506Z,85.34
2018-06-18T05:09:07.580Z,85.05
2018-06-18T05:10:07.531Z,85.15
2018-06-18T05:12:00.476Z,85.63
2018-06-18T05:13:00.503Z,85.25
2018-06-18T05:14:53.420Z,84.77
2018-06-18T05:15:53.376Z,85.15
2018-06-18T05:17:46.375Z,84.95
2018-06-18T05:18:46.295Z,84.77
2018-06-18T05:20:39.302Z,84.48
2018-06-18T05:21:39.226Z,84.58
2018-06-18T05:23:32.190Z,84.48
2018-06-18T05:24:32.155Z,84.77
2018-06-18T05:26:25.016Z,84.38
2018-06-18T05:27:24.936Z,84.61
2018-06-18T05:29:17.926Z,84.71
2018-06-18T05:30:17.879Z,84.23
2018-06-18T05:32:10.815Z,83.94
2018-06-18T05:33:10.781Z,84.04
2018-06-18T05:35:03.762Z,84.23
2018-06-18T05:36:03.706Z,84.04
2018-06-18T05:37:56.766Z,84.42
2018-06-18T05:38:56.727Z,84.14
2018-06-18T05:40:49.575Z,83.75
2018-06-18T05:41:49.516Z,84.14
2018-06-18T05:43:42.475Z,83.94
2018-06-18T05:44:42.441Z,83.47
2018-06-18T05:46:35.573Z,83.47
2018-06-18T05:47:35.512Z,83.56
2018-06-18T05:49:28.490Z,83.37
2018-06-18T05:50:28.541Z,83.94
2018-06-18T05:52:21.295Z,82.35
2018-06-18T05:53:21.254Z,83.41
2018-06-18T05:55:14.351Z,82.35
2018-06-18T05:56:14.314Z,82.93
2018-06-18T05:58:07.293Z,82.74
2018-06-18T05:59:07.242Z,81.10
2018-06-18T06:01:00.202Z,81.20
2018-06-18T06:02:00.173Z,81.40
2018-06-18T06:03:53.356Z,81.59
2018-06-18T06:04:53.307Z,80.91
2018-06-18T06:06:46.308Z,80.58
2018-06-18T06:07:46.267Z,81.40
2018-06-18T06:09:39.387Z,80.15
2018-06-18T06:10:39.343Z,81.10
2018-06-18T06:12:32.308Z,81.20
2018-06-18T06:13:32.253Z,81.20
2018-06-18T06:15:25.243Z,79.99
2018-06-18T06:16:25.217Z,79.76
2018-06-18T06:18:18.282Z,80.34
2018-06-18T06:19:18.223Z,80.57
2018-06-18T06:21:11.194Z,79.90
2018-06-18T06:22:11.166Z,79.80
2018-06-18T06:24:03.998Z,79.13
2018-06-18T06:25:03.956Z,79.22
2018-06-18T06:26:56.919Z,79.52
2018-06-18T06:27:56.885Z,79.13
2018-06-18T06:29:49.904Z,79.65
2018-06-18T06:30:49.838Z,79.55
2018-06-18T06:32:42.674Z,79.22
2018-06-18T06:33:42.618Z,79.46
2018-06-18T06:35:35.619Z,78.65
2018-06-18T06:36:35.574Z,79.32
2018-06-18T06:38:28.724Z,79.52
2018-06-18T06:39:28.589Z,79.61
2018-06-18T06:41:21.569Z,79.42
2018-06-18T06:42:21.518Z,79.42
2018-06-18T06:44:14.541Z,79.61
2018-06-18T06:45:14.474Z,79.32
2018-06-18T06:47:07.608Z,79.80
2018-06-18T06:48:07.547Z,79.52
2018-06-18T06:50:00.554Z,79.52
2018-06-18T06:51:00.504Z,79.42
2018-06-18T06:52:53.479Z,79.80
2018-06-18T06:53:53.464Z,79.99
2018-06-18T06:55:46.278Z,80.19
2018-06-18T06:56:46.233Z,80.66
2018-06-18T06:58:39.219Z,80.19
2018-06-18T06:59:39.194Z,80.38
2018-06-18T07:01:32.164Z,80.96
2018-06-18T07:02:32.133Z,81.15
2018-06-18T07:04:25.289Z,81.92
2018-06-18T07:05:25.198Z,82.01
2018-06-18T07:07:18.168Z,82.40
2018-06-18T07:08:18.124Z,82.35
2018-06-18T07:10:11.099Z,82.07
2018-06-18T07:11:11.058Z,82.45
2018-06-18T07:13:03.945Z,82.87
2018-06-18T07:14:03.894Z,82.40
2018-06-18T07:15:56.858Z,81.34
2018-06-18T07:16:56.813Z,81.92
2018-06-18T07:18:49.837Z,81.78
2018-06-18T07:19:49.772Z,81.59
2018-06-18T07:21:43.035Z,81.59
2018-06-18T07:22:42.864Z,82.68
2018-06-18T07:24:35.831Z,81.49
2018-06-18T07:25:35.788Z,82.01
2018-06-18T07:27:28.765Z,81.34
2018-06-18T07:28:28.730Z,81.24
2018-06-18T07:30:21.933Z,81.34
2018-06-18T07:31:21.795Z,81.05
2018-06-18T07:33:14.778Z,80.86
2018-06-18T07:34:14.729Z,81.24
2018-06-18T07:36:07.697Z,81.72
2018-06-18T07:37:07.648Z,81.53
2018-06-18T07:39:00.499Z,81.24
2018-06-18T07:40:00.444Z,81.57
2018-06-18T07:41:53.469Z,80.22
2018-06-18T07:42:53.435Z,80.32
2018-06-18T07:44:46.422Z,80.22
2018-06-18T07:45:46.434Z,80.32
2018-06-18T07:47:39.477Z,80.17
2018-06-18T07:48:39.430Z,79.88
2018-06-18T07:50:32.403Z,79.69
2018-06-18T07:51:32.469Z,79.50
2018-06-18T07:53:25.295Z,79.82
2018-06-18T07:54:25.270Z,78.34
2018-06-18T07:56:18.434Z,79.60
2018-06-18T07:57:18.382Z,79.25
2018-06-18T07:59:11.356Z,78.38
2018-06-18T08:00:11.329Z,78.58
2018-06-18T08:02:04.296Z,77.61
2018-06-18T08:03:04.250Z,77.65
2018-06-18T08:04:57.310Z,76.88
2018-06-18T08:05:57.255Z,76.11
2018-06-18T08:07:50.241Z,76.40
2018-06-18T08:08:50.200Z,76.25
2018-06-18T08:10:43.182Z,76.25
2018-06-18T08:11:43.117Z,75.76
2018-06-18T08:13:36.156Z,75.67
2018-06-18T08:14:36.120Z,75.76
2018-06-18T08:16:29.107Z,75.99
2018-06-18T08:17:29.054Z,75.90
2018-06-18T08:19:22.007Z,75.51
2018-06-18T08:20:21.996Z,74.55
2018-06-18T08:22:14.843Z,74.10
2018-06-18T08:23:14.780Z,74.45
2018-06-18T08:25:07.730Z,74.07
2018-06-18T08:26:07.707Z,74.93
2018-06-18T08:28:00.676Z,74.78
2018-06-18T08:29:00.637Z,74.40
2018-06-18T08:30:53.900Z,72.47
2018-06-18T08:31:53.717Z,72.75
2018-06-18T08:33:46.702Z,73.05
2018-06-18T08:34:46.715Z,71.98
2018-06-18T08:36:39.632Z,73.30
2018-06-18T08:37:39.578Z,74.16
2018-06-18T08:39:32.758Z,73.10
2018-06-18T08:40:32.670Z,72.81
2018-06-18T08:42:25.643Z,73.82
2018-06-18T08:43:25.588Z,73.24
2018-06-18T08:45:18.543Z,72.85
2018-06-18T08:46:18.517Z,71.79
2018-06-18T08:48:11.357Z,73.01
2018-06-18T08:49:11.304Z,72.75
2018-06-18T08:51:04.273Z,72.79
2018-06-18T08:52:04.234Z,73.18
2018-06-18T08:53:57.227Z,73.31
2018-06-18T08:54:57.183Z,72.25
2018-06-18T08:56:50.013Z,72.25
2018-06-18T08:57:50.021Z,72.34
2018-06-18T08:59:42.909Z,72.15
2018-06-18T09:00:42.862Z,70.22
2018-06-18T09:02:35.837Z,70.61
2018-06-18T09:03:35.788Z,70.80
2018-06-18T09:05:28.652Z,69.55
2018-06-18T09:06:28.586Z,70.32
2018-06-18T09:08:21.573Z,70.03
2018-06-18T09:09:21.527Z,69.45
2018-06-18T09:11:14.543Z,69.26
2018-06-18T09:12:14.486Z,68.68
2018-06-18T09:14:07.469Z,69.64
2018-06-18T09:15:07.428Z,69.16
2018-06-18T09:17:00.383Z,68.77
2018-06-18T09:18:00.372Z,68.91
2018-06-18T09:19:53.233Z,69.68
2018-06-18T09:20:53.190Z,70.54
2018-06-18T09:22:46.147Z,69.97
2018-06-18T09:23:46.132Z,69.97
2018-06-18T09:25:39.092Z,70.06
2018-06-18T09:26:39.122Z,68.71
2018-06-18T09:28:32.162Z,68.52
2018-06-18T09:29:32.123Z,68.19
2018-06-18T09:31:25.102Z,68.29
2018-06-18T09:32:25.270Z,69.00
2018-06-18T09:34:18.111Z,68.62
2018-06-18T09:35:18.077Z,68.04
2018-06-18T09:37:10.941Z,68.10
2018-06-18T09:38:10.876Z,67.81
2018-06-18T09:40:03.859Z,69.80
2018-06-18T09:41:03.809Z,70.22
2018-06-18T09:42:56.790Z,70.70
2018-06-18T09:43:56.762Z,70.22
2018-06-18T09:45:49.980Z,69.64
2018-06-18T09:46:49.874Z,70.00
2018-06-18T09:48:42.853Z,69.90
2018-06-18T09:49:42.823Z,70.00
2018-06-18T09:51:35.804Z,69.80
2018-06-18T09:52:35.753Z,70.19
2018-06-18T09:54:28.669Z,70.61
2018-06-18T09:55:28.650Z,70.70
2018-06-18T09:57:21.637Z,71.19
2018-06-18T09:58:21.599Z,71.86
2018-06-18T10:00:14.549Z,70.32
2018-06-18T10:01:14.530Z,70.13
2018-06-18T10:03:07.711Z,69.39
2018-06-18T10:04:07.606Z,67.94
2018-06-18T10:06:00.571Z,68.59
2018-06-18T10:07:00.536Z,66.94
2018-06-18T10:08:53.518Z,64.47
2018-06-18T10:09:53.473Z,64.34
2018-06-18T10:11:46.565Z,61.08
2018-06-18T10:12:46.504Z,60.59
2018-06-18T10:14:39.470Z,61.08
2018-06-18T10:15:39.448Z,61.27
2018-06-18T10:17:32.439Z,59.79
2018-06-18T10:18:32.398Z,62.21
2018-06-18T10:20:25.405Z,61.05
2018-06-18T10:21:25.326Z,60.98
2018-06-18T10:23:18.315Z,60.66
2018-06-18T10:24:18.351Z,60.50
2018-06-18T10:26:11.249Z,60.66
2018-06-18T10:27:11.220Z,61.85
2018-06-18T10:29:04.130Z,60.66
2018-06-18T10:30:04.078Z,61.60
2018-06-18T10:31:57.049Z,61.63
2018-06-18T10:32:57.026Z,61.72
2018-06-18T10:34:50.010Z,62.40
2018-06-18T10:35:49.969Z,62.21
2018-06-18T10:37:43.138Z,61.95
2018-06-18T10:38:43.045Z,62.04
2018-06-18T10:40:35.992Z,63.18
2018-06-18T10:41:36.042Z,61.60
2018-06-18T10:43:28.825Z,63.28
2018-06-18T10:44:28.775Z,63.95
2018-06-18T10:46:21.926Z,64.40
2018-06-18T10:47:21.882Z,64.79
2018-06-18T10:49:14.872Z,65.88
2018-06-18T10:50:14.837Z,65.78
2018-06-18T10:52:07.806Z,66.01
2018-06-18T10:53:07.766Z,66.20
2018-06-18T10:55:00.866Z,65.82
2018-06-18T10:56:00.830Z,65.40
2018-06-18T10:57:53.791Z,65.69
2018-06-18T10:58:53.761Z,66.66
2018-06-18T11:00:46.766Z,68.14
2018-06-18T11:01:46.712Z,68.04
2018-06-18T11:03:39.768Z,68.30
2018-06-18T11:04:39.674Z,67.52
2018-06-18T11:06:32.628Z,68.36
2018-06-18T11:07:32.595Z,68.55
2018-06-18T11:09:25.586Z,68.46
2018-06-18T11:10:25.541Z,69.32
2018-06-18T11:12:18.391Z,68.46
2018-06-18T11:13:18.341Z,68.65
2018-06-18T11:15:11.317Z,68.07
2018-06-18T11:16:11.411Z,68.55
2018-06-18T11:18:04.240Z,70.26
2018-06-18T11:19:04.212Z,69.58
2018-06-18T11:20:57.147Z,69.87
2018-06-18T11:21:57.049Z,69.90
2018-06-18T11:23:49.863Z,69.78
2018-06-18T11:24:49.841Z,70.10
2018-06-18T11:26:42.863Z,69.42
2018-06-18T11:27:42.777Z,69.04
2018-06-18T11:29:35.756Z,69.71
2018-06-18T11:30:35.726Z,69.90
2018-06-18T11:32:28.989Z,69.42
2018-06-18T11:33:28.810Z,70.29
2018-06-18T11:35:21.795Z,70.58
2018-06-18T11:36:21.754Z,70.68
2018-06-18T11:38:14.714Z,69.62
2018-06-18T11:39:14.705Z,69.32
2018-06-18T11:41:07.526Z,70.00
2018-06-18T11:42:07.635Z,69.32
2018-06-18T11:44:00.491Z,68.75
2018-06-18T11:45:00.456Z,70.00
2018-06-18T11:46:53.418Z,69.58
2018-06-18T11:47:53.447Z,70.00
2018-06-18T11:49:46.538Z,70.97
2018-06-18T11:50:46.451Z,71.06
2018-06-18T11:52:39.524Z,70.87
2018-06-18T11:53:39.408Z,71.06
2018-06-18T11:55:32.365Z,70.10
2018-06-18T11:56:32.329Z,69.78
2018-06-18T11:58:25.249Z,70.58
2018-06-18T11:59:25.138Z,71.45
2018-06-18T12:01:18.177Z,71.45
2018-06-18T12:02:18.107Z,71.94
2018-06-18T12:04:11.077Z,71.51
2018-06-18T12:05:11.066Z,70.94
2018-06-18T12:07:04.277Z,70.78
2018-06-18T12:08:04.114Z,70.20
2018-06-18T12:09:57.325Z,70.97
2018-06-18T12:10:57.192Z,70.94
2018-06-18T12:12:50.038Z,71.55
2018-06-18T12:13:50.013Z,71.45
2018-06-18T12:15:43.123Z,72.03
2018-06-18T12:16:43.130Z,71.22
2018-06-18T12:18:36.069Z,71.70
2018-06-18T12:19:36.023Z,71.70
2018-06-18T12:21:29.033Z,71.32
2018-06-18T12:22:28.995Z,71.51
2018-06-18T12:24:21.843Z,71.42
2018-06-18T12:25:21.787Z,71.55
2018-06-18T12:27:14.793Z,70.87
2018-06-18T12:28:14.772Z,70.74
2018-06-18T12:30:07.729Z,70.78
2018-06-18T12:31:07.695Z,71.45
2018-06-18T12:33:00.804Z,71.36
2018-06-18T12:34:00.766Z,71.64
2018-06-18T12:35:53.720Z,71.26
2018-06-18T12:36:53.563Z,69.74
2018-06-18T12:38:46.540Z,69.65
2018-06-18T12:39:46.511Z,69.98
2018-06-18T12:41:39.756Z,68.91
2018-06-18T12:42:39.660Z,69.10
2018-06-18T12:44:32.639Z,69.01
2018-06-18T12:45:32.593Z,69.14
2018-06-18T12:47:25.569Z,69.04
2018-06-18T12:48:25.544Z,69.62
2018-06-18T12:50:18.380Z,68.69
2018-06-18T12:51:18.324Z,68.46
2018-06-18T12:53:11.327Z,67.30
2018-06-18T12:54:11.280Z,68.75
2018-06-18T12:56:04.274Z,69.04
2018-06-18T12:57:04.270Z,68.46
2018-06-18T12:58:57.445Z,69.53
2018-06-18T12:59:57.333Z,69.62
2018-06-18T13:01:50.319Z,69.10
2018-06-18T13:02:50.283Z,69.30
2018-06-18T13:04:43.252Z,68.24
2018-06-18T13:05:43.199Z,68.43
2018-06-18T13:07:36.036Z,69.68
2018-06-18T13:08:36.024Z,69.20
2018-06-18T13:10:28.985Z,68.91
2018-06-18T13:11:28.944Z,69.01
2018-06-18T13:13:21.941Z,70.56
2018-06-18T13:14:21.891Z,71.04
2018-06-18T13:16:14.889Z,70.65
2018-06-18T13:17:14.830Z,69.84
2018-06-18T13:19:07.812Z,70.32
2018-06-18T13:20:07.745Z,70.14
2018-06-18T13:22:00.747Z,71.39
2018-06-18T13:23:00.702Z,71.30
2018-06-18T13:24:53.669Z,70.42
2018-06-18T13:25:53.636Z,71.00
2018-06-18T13:27:46.487Z,71.45
2018-06-18T13:28:46.427Z,71.48
2018-06-18T13:30:39.436Z,71.94
2018-06-18T13:31:39.404Z,72.61
2018-06-18T13:33:32.501Z,72.52
2018-06-18T13:34:32.462Z,73.15
2018-06-18T13:36:25.326Z,72.86
2018-06-18T13:37:25.302Z,73.63
2018-06-18T13:39:18.172Z,74.41
2018-06-18T13:40:18.097Z,74.21
2018-06-18T13:42:11.076Z,75.53
2018-06-18T13:43:11.057Z,75.62
2018-06-18T13:45:04.031Z,75.92
2018-06-18T13:46:03.990Z,75.43
2018-06-18T13:47:56.858Z,76.10
2018-06-18T13:48:56.795Z,76.40
2018-06-18T13:50:49.757Z,76.01
2018-06-18T13:51:49.736Z,76.10
2018-06-18T13:53:42.712Z,76.10
2018-06-18T13:54:42.709Z,76.40
2018-06-18T13:56:35.811Z,76.30
2018-06-18T13:57:35.793Z,76.07
2018-06-18T13:59:28.752Z,76.01
2018-06-18T14:00:28.703Z,76.01
2018-06-18T14:02:21.553Z,75.20
2018-06-18T14:03:21.519Z,75.14
2018-06-18T14:05:14.713Z,75.72
2018-06-18T14:06:14.592Z,75.34
2018-06-18T14:08:07.580Z,75.34
2018-06-18T14:09:07.521Z,74.85
2018-06-18T14:11:00.507Z,74.95
2018-06-18T14:12:00.469Z,75.24
2018-06-18T14:13:53.497Z,74.85
2018-06-18T14:14:53.368Z,74.85
2018-06-18T14:16:46.378Z,75.34
2018-06-18T14:17:46.346Z,75.34
2018-06-18T14:19:39.382Z,74.57
2018-06-18T14:20:39.273Z,75.72
2018-06-18T14:22:32.417Z,76.01
2018-06-18T14:23:32.349Z,75.05
2018-06-18T14:25:25.433Z,74.27
2018-06-18T14:26:25.290Z,74.95
2018-06-18T14:28:18.252Z,75.43
2018-06-18T14:29:18.218Z,74.76
2018-06-18T14:31:11.150Z,74.57
2018-06-18T14:32:11.082Z,74.37
2018-06-18T14:34:04.048Z,74.60
2018-06-18T14:35:04.018Z,74.85
2018-06-18T14:36:56.999Z,74.37
2018-06-18T14:37:56.955Z,74.18
2018-06-18T14:39:50.159Z,74.21
2018-06-18T14:40:50.043Z,73.54
2018-06-18T14:42:43.039Z,74.02
2018-06-18T14:43:42.838Z,73.77
2018-06-18T14:45:35.876Z,72.90
2018-06-18T14:46:35.842Z,73.58
2018-06-18T14:48:28.711Z,73.71
2018-06-18T14:49:28.560Z,73.22
2018-06-18T14:51:21.667Z,71.81
2018-06-18T14:52:21.478Z,71.04
2018-06-18T14:54:14.446Z,70.98
2018-06-18T14:55:14.399Z,70.50
2018-06-18T14:57:07.267Z,70.30
2018-06-18T14:58:07.211Z,70.50
2018-06-18T15:00:00.294Z,69.53
2018-06-18T15:01:00.143Z,69.24
2018-06-18T15:02:53.150Z,69.82
2018-06-18T15:03:53.218Z,70.59
2018-06-18T15:05:46.077Z,69.43
2018-06-18T15:06:46.017Z,70.10
2018-06-18T15:08:38.977Z,69.43
2018-06-18T15:09:38.957Z,69.04
2018-06-18T15:11:31.809Z,70.10
2018-06-18T15:12:31.750Z,70.56
2018-06-18T15:14:24.796Z,70.72
2018-06-18T15:15:24.740Z,70.94
2018-06-18T15:17:17.688Z,70.75
2018-06-18T15:18:17.649Z,70.65
2018-06-18T15:20:10.786Z,71.10
2018-06-18T15:21:10.788Z,71.30
2018-06-18T15:23:03.740Z,71.97
2018-06-18T15:24:03.692Z,71.68
2018-06-18T15:25:56.691Z,71.78
2018-06-18T15:26:56.723Z,72.16
2018-06-18T15:28:49.470Z,72.45
2018-06-18T15:29:49.423Z,72.22
2018-06-18T15:31:42.377Z,73.32
2018-06-18T15:32:42.367Z,73.52
2018-06-18T15:34:35.328Z,73.32
2018-06-18T15:35:35.361Z,73.71
2018-06-18T15:37:28.364Z,72.84
2018-06-18T15:38:28.405Z,72.94
2018-06-18T15:40:21.355Z,72.55
2018-06-18T15:41:21.295Z,72.26
2018-06-18T15:43:14.127Z,71.97
2018-06-18T15:44:14.219Z,71.91
2018-06-18T15:46:07.104Z,71.30
2018-06-18T15:47:07.050Z,71.68
2018-06-18T15:49:00.055Z,71.52
2018-06-18T15:49:59.998Z,71.14
2018-06-18T15:51:52.968Z,71.52
2018-06-18T15:52:52.936Z,71.52
2018-06-18T15:54:45.936Z,71.33
2018-06-18T15:55:45.895Z,71.23
2018-06-18T15:57:38.713Z,71.48
2018-06-18T15:58:38.674Z,72.45
2018-06-18T16:00:31.541Z,72.97
2018-06-18T16:01:31.476Z,73.36
2018-06-18T16:03:24.501Z,72.16
2018-06-18T16:04:24.545Z,71.68
2018-06-18T16:06:17.297Z,71.48
2018-06-18T16:07:17.254Z,70.81
2018-06-18T16:09:10.266Z,71.20
2018-06-18T16:10:10.174Z,71.88
2018-06-18T16:12:03.152Z,71.68
2018-06-18T16:13:03.090Z,71.30
2018-06-18T16:14:56.091Z,71.04
2018-06-18T16:15:56.062Z,71.10
2018-06-18T16:17:48.891Z,71.42
2018-06-18T16:18:48.828Z,71.23
2018-06-18T16:20:41.687Z,70.36
2018-06-18T16:21:41.646Z,69.59
2018-06-18T16:23:34.492Z,68.85
2018-06-18T16:24:34.440Z,68.40
2018-06-18T16:26:27.421Z,69.08
2018-06-18T16:27:27.375Z,68.79
2018-06-18T16:29:20.359Z,68.21
2018-06-18T16:30:20.352Z,67.69
2018-06-18T16:32:13.180Z,68.37
2018-06-18T16:33:13.131Z,69.24
2018-06-18T16:35:05.985Z,69.14
2018-06-18T16:36:05.927Z,68.85
2018-06-18T16:37:58.923Z,68.98
2018-06-18T16:38:58.880Z,69.08
2018-06-18T16:40:51.870Z,69.24
2018-06-18T16:41:51.815Z,68.95
2018-06-18T16:43:44.868Z,69.04
2018-06-18T16:44:44.775Z,69.24
2018-06-18T16:46:37.791Z,70.17
2018-06-18T16:47:37.722Z,70.30
2018-06-18T16:49:30.890Z,70.59
2018-06-18T16:50:30.845Z,70.98
2018-06-18T16:52:23.730Z,71.72
2018-06-18T16:53:23.662Z,71.14
2018-06-18T16:55:17.609Z,71.56
2018-06-18T16:56:17.482Z,71.26
2018-06-18T16:58:10.462Z,71.72
2018-06-18T16:59:10.421Z,71.72
2018-06-18T17:01:03.295Z,72.16
2018-06-18T17:02:03.302Z,72.49
2018-06-18T17:03:56.305Z,72.39
2018-06-18T17:04:56.228Z,71.91
2018-06-18T17:06:49.239Z,73.07
2018-06-18T17:07:49.205Z,73.07
2018-06-18T17:09:42.057Z,73.16
2018-06-18T17:10:42.014Z,72.94
2018-06-18T17:12:34.832Z,72.97
2018-06-18T17:13:34.819Z,73.36
2018-06-18T17:15:27.799Z,73.84
2018-06-18T17:16:27.741Z,73.22
2018-06-18T17:18:20.582Z,74.13
2018-06-18T17:19:20.561Z,73.74
2018-06-18T17:21:13.624Z,73.74
2018-06-18T17:22:13.587Z,73.46
2018-06-18T17:24:06.586Z,73.74
2018-06-18T17:25:06.518Z,73.07
2018-06-18T17:26:59.514Z,72.97
2018-06-18T17:27:59.519Z,73.16
2018-06-18T17:29:52.313Z,73.26
2018-06-18T17:30:52.261Z,73.74
2018-06-18T17:32:45.110Z,73.07
2018-06-18T17:33:45.059Z,73.49
2018-06-18T17:35:37.959Z,71.94
2018-06-18T17:36:37.852Z,72.62
2018-06-18T17:38:30.819Z,72.52
2018-06-18T17:39:30.775Z,72.72
2018-06-18T17:41:23.768Z,72.36
2018-06-18T17:42:23.730Z,73.33
2018-06-18T17:44:16.557Z,72.56
2018-06-18T17:45:16.518Z,71.88
2018-06-18T17:47:09.524Z,71.69
2018-06-18T17:48:09.590Z,71.59
2018-06-18T17:50:02.439Z,71.50
2018-06-18T17:51:02.449Z,71.78
2018-06-18T17:52:55.570Z,72.52
2018-06-18T17:53:55.582Z,72.46
2018-06-18T17:55:48.459Z,73.43
2018-06-18T17:56:48.419Z,72.27
2018-06-18T17:58:43.377Z,71.56
2018-06-18T17:59:41.359Z,71.94
2018-06-18T18:01:34.443Z,71.84
2018-06-18T18:02:34.463Z,72.42
2018-06-18T18:04:27.408Z,71.94
2018-06-18T18:05:27.360Z,73.30
2018-06-18T18:07:20.334Z,73.30
2018-06-18T18:08:20.305Z,73.30
2018-06-18T18:10:13.148Z,72.97
2018-06-18T18:11:13.167Z,73.49
2018-06-18T18:13:06.118Z,73.01
2018-06-18T18:14:06.035Z,72.14
2018-06-18T18:15:59.024Z,73.65
2018-06-18T18:16:59.022Z,73.84
2018-06-18T18:18:52.094Z,74.04
2018-06-18T18:19:52.050Z,74.32
2018-06-18T18:21:45.010Z,74.42
2018-06-18T18:22:44.970Z,74.71
2018-06-18T18:24:37.816Z,74.77
2018-06-18T18:25:37.758Z,74.58
2018-06-18T18:27:30.728Z,75.26
2018-06-18T18:28:30.683Z,75.26
2018-06-18T18:30:23.826Z,75.51
2018-06-18T18:31:23.469Z,75.79
2018-06-18T18:33:16.301Z,77.05